createdAt,value
2023-07-25T00:01:36.304Z,7.57
2023-07-25T00:04:05.161Z,7.35
2023-07-25T00:06:34.198Z,7.20
2023-07-25T00:09:03.339Z,7.03
2023-07-25T00:11:32.670Z,6.78
2023-07-25T00:14:02.141Z,7.10
2023-07-25T00:16:31.125Z,5.43
2023-07-25T00:18:59.812Z,6.72
2023-07-25T00:21:28.841Z,7.28
2023-07-25T00:23:57.530Z,5.43
2023-07-25T00:26:27.738Z,7.25
2023-07-25T00:28:56.475Z,5.82
2023-07-25T00:31:25.467Z,6.38
2023-07-25T00:33:54.308Z,5.95
2023-07-25T00:36:23.275Z,6.50
2023-07-25T00:38:51.868Z,6.97
2023-07-25T00:41:20.795Z,6.03
2023-07-25T00:43:49.425Z,6.13
2023-07-25T00:46:18.616Z,6.43
2023-07-25T00:48:47.348Z,7.22
2023-07-25T00:51:16.332Z,7.22
2023-07-25T00:53:44.946Z,7.28
2023-07-25T00:56:15.278Z,7.95
2023-07-25T00:58:43.962Z,7.93
2023-07-25T01:01:13.001Z,8.63
2023-07-25T01:03:41.719Z,9.23
2023-07-25T01:06:14.224Z,9.32
2023-07-25T01:09:03.018Z,10.90
2023-07-25T01:11:32.334Z,10.85
2023-07-25T01:14:01.129Z,11.65
2023-07-25T01:16:31.202Z,10.32
2023-07-25T01:18:59.936Z,10.82
2023-07-25T01:21:29.135Z,10.23
2023-07-25T01:24:03.472Z,10.73
2023-07-25T01:26:33.244Z,9.98
2023-07-25T01:29:01.874Z,10.80
2023-07-25T01:31:31.246Z,10.10
2023-07-25T01:34:00.220Z,10.43
2023-07-25T01:36:29.165Z,10.55
2023-07-25T01:38:57.824Z,9.65
2023-07-25T01:41:26.836Z,10.07
2023-07-25T01:43:55.647Z,10.23
2023-07-25T01:46:25.067Z,9.13
2023-07-25T01:48:53.731Z,9.48
2023-07-25T01:51:22.711Z,10.55
2023-07-25T01:53:52.221Z,10.85
2023-07-25T01:56:21.526Z,11.02
2023-07-25T01:58:50.215Z,9.98
2023-07-25T02:01:19.270Z,10.30
2023-07-25T02:03:48.172Z,9.73
2023-07-25T02:06:17.074Z,10.18
2023-07-25T02:08:45.646Z,11.52
2023-07-25T02:11:14.727Z,10.25
2023-07-25T02:13:43.395Z,10.45
2023-07-25T02:16:12.368Z,9.63
2023-07-25T02:18:41.250Z,9.30
2023-07-25T02:21:10.284Z,9.10
2023-07-25T02:23:38.895Z,9.90
2023-07-25T02:26:07.999Z,9.55
2023-07-25T02:28:36.593Z,9.23
2023-07-25T02:31:05.641Z,10.18
2023-07-25T02:33:34.775Z,9.38
2023-07-25T02:36:03.807Z,9.02
2023-07-25T02:38:32.580Z,9.02
2023-07-25T02:41:01.569Z,10.00
2023-07-25T02:43:30.178Z,9.85
2023-07-25T02:45:59.143Z,10.95
2023-07-25T02:48:28.170Z,10.95
2023-07-25T02:50:57.159Z,10.57
2023-07-25T02:53:25.865Z,10.80
2023-07-25T02:55:55.844Z,11.85
2023-07-25T02:58:24.921Z,11.27
2023-07-25T03:00:53.917Z,11.43
2023-07-25T03:03:22.498Z,12.15
2023-07-25T03:05:52.842Z,10.93
2023-07-25T03:08:22.203Z,11.98
2023-07-25T03:10:51.443Z,11.50
2023-07-25T03:13:20.442Z,11.43
2023-07-25T03:15:49.558Z,10.88
2023-07-25T03:18:18.362Z,11.32
2023-07-25T03:20:47.351Z,11.45
2023-07-25T03:23:16.036Z,12.13
2023-07-25T03:25:45.101Z,10.32
2023-07-25T03:28:13.904Z,12.70
2023-07-25T03:30:43.141Z,12.50
2023-07-25T03:33:11.876Z,12.45
2023-07-25T03:35:40.971Z,14.05
2023-07-25T03:38:09.793Z,14.73
2023-07-25T03:40:40.049Z,9.77
2023-07-25T03:43:08.967Z,4.75
2023-07-25T03:45:38.112Z,4.68
2023-07-25T03:48:07.159Z,4.45
2023-07-25T03:50:36.402Z,3.78
2023-07-25T03:53:06.391Z,2.83
2023-07-25T03:55:35.530Z,2.63
2023-07-25T03:58:04.344Z,3.28
2023-07-25T04:00:33.473Z,3.10
2023-07-25T04:03:14.182Z,2.60
2023-07-25T04:05:44.969Z,2.55
2023-07-25T04:08:13.713Z,4.00
2023-07-25T04:10:42.893Z,2.97
2023-07-25T04:13:11.744Z,3.25
2023-07-25T04:15:42.852Z,3.10
2023-07-25T04:18:11.560Z,3.17
2023-07-25T04:20:41.675Z,3.20
2023-07-25T04:23:10.987Z,3.38
2023-07-25T04:25:40.142Z,2.42
2023-07-25T04:28:09.264Z,3.10
2023-07-25T04:30:38.379Z,2.92
2023-07-25T04:33:07.143Z,2.90
2023-07-25T04:35:37.462Z,3.50
2023-07-25T04:38:06.270Z,2.72
2023-07-25T04:40:35.276Z,4.13
2023-07-25T04:43:03.964Z,3.25
2023-07-25T04:45:32.992Z,3.42
2023-07-25T04:48:02.480Z,2.90
2023-07-25T04:50:31.554Z,3.03
2023-07-25T04:53:00.293Z,3.95
2023-07-25T04:55:29.309Z,3.70
2023-07-25T04:57:57.998Z,3.58
2023-07-25T05:00:30.747Z,3.75
2023-07-25T05:02:59.749Z,3.65
2023-07-25T05:05:29.049Z,3.65
2023-07-25T05:07:57.668Z,3.22
2023-07-25T05:10:26.670Z,3.80
2023-07-25T05:12:55.292Z,3.05
2023-07-25T05:15:24.478Z,3.13
2023-07-25T05:17:53.155Z,3.20
2023-07-25T05:20:22.188Z,3.85
2023-07-25T05:22:50.927Z,4.20
2023-07-25T05:25:19.946Z,4.15
2023-07-25T05:27:48.593Z,3.50
2023-07-25T05:30:17.737Z,3.83
2023-07-25T05:32:47.094Z,3.78
2023-07-25T05:35:17.704Z,3.67
2023-07-25T05:37:46.409Z,4.00
2023-07-25T05:40:15.375Z,3.53
2023-07-25T05:42:44.649Z,4.22
2023-07-25T05:45:13.818Z,3.80
2023-07-25T05:47:42.546Z,3.58
2023-07-25T05:50:12.367Z,3.70
2023-07-25T05:52:41.128Z,2.88
2023-07-25T05:55:10.696Z,3.08
2023-07-25T05:57:39.406Z,3.65
2023-07-25T06:00:09.430Z,3.60
2023-07-25T06:02:39.133Z,4.15
2023-07-25T06:05:09.310Z,3.95
2023-07-25T06:07:38.599Z,3.95
2023-07-25T06:10:08.477Z,3.78
2023-07-25T06:12:37.194Z,3.70
2023-07-25T06:15:06.806Z,3.15
2023-07-25T06:17:35.457Z,4.45
2023-07-25T06:20:05.454Z,3.67
2023-07-25T06:22:36.098Z,3.35
2023-07-25T06:25:09.617Z,3.50
2023-07-25T06:27:38.489Z,2.67
2023-07-25T06:30:09.273Z,2.65
2023-07-25T06:32:41.338Z,2.35
2023-07-25T06:35:11.897Z,2.10
2023-07-25T06:37:40.858Z,2.47
2023-07-25T06:40:10.262Z,2.10
2023-07-25T06:42:38.944Z,2.30
2023-07-25T06:45:09.463Z,2.78
2023-07-25T06:47:38.478Z,2.20
2023-07-25T06:50:07.989Z,1.85
2023-07-25T06:52:36.837Z,1.75
2023-07-25T06:55:06.967Z,1.90
2023-07-25T06:57:35.616Z,2.10
2023-07-25T07:00:05.256Z,2.10
2023-07-25T07:02:34.163Z,2.13
2023-07-25T07:05:15.388Z,1.65
2023-07-25T07:07:48.288Z,1.70
2023-07-25T07:10:17.383Z,1.40
2023-07-25T07:12:49.882Z,1.40
2023-07-25T07:15:19.313Z,1.63
2023-07-25T07:17:48.451Z,1.20
2023-07-25T07:20:19.041Z,2.08
2023-07-25T07:22:48.301Z,1.63
2023-07-25T07:25:17.389Z,2.08
2023-07-25T07:27:46.047Z,1.90
2023-07-25T07:30:15.162Z,1.80
2023-07-25T07:32:43.933Z,1.50
2023-07-25T07:35:12.893Z,1.58
2023-07-25T07:37:41.620Z,1.73
2023-07-25T07:40:12.169Z,1.90
2023-07-25T07:42:40.842Z,1.52
2023-07-25T07:45:19.639Z,2.25
2023-07-25T07:47:48.451Z,1.52
2023-07-25T07:50:17.586Z,1.67
2023-07-25T07:52:46.543Z,2.13
2023-07-25T07:55:15.972Z,1.98
2023-07-25T07:57:46.896Z,2.97
2023-07-25T08:00:16.683Z,2.40
2023-07-25T08:02:47.894Z,2.03
2023-07-25T08:05:16.917Z,1.60
2023-07-25T08:07:45.590Z,2.72
2023-07-25T08:10:15.246Z,2.15
2023-07-25T08:12:44.088Z,2.38
2023-07-25T08:15:13.318Z,2.17
2023-07-25T08:17:42.074Z,2.55
2023-07-25T08:20:11.366Z,3.10
2023-07-25T08:22:40.110Z,4.32
2023-07-25T08:25:10.688Z,4.05
2023-07-25T08:27:39.395Z,4.60
2023-07-25T08:30:08.996Z,4.72
2023-07-25T08:32:37.769Z,3.72
2023-07-25T08:35:07.084Z,3.30
2023-07-25T08:37:35.827Z,3.15
2023-07-25T08:40:06.605Z,3.95
2023-07-25T08:42:35.335Z,3.38
2023-07-25T08:45:05.597Z,3.42
2023-07-25T08:47:35.140Z,3.10
2023-07-25T08:50:04.470Z,2.75
2023-07-25T08:52:33.249Z,2.53
2023-07-25T08:55:02.285Z,3.22
2023-07-25T08:57:31.045Z,2.95
2023-07-25T09:00:00.054Z,3.42
2023-07-25T09:02:29.228Z,3.20
2023-07-25T09:04:58.360Z,2.83
2023-07-25T09:07:27.005Z,2.72
2023-07-25T09:09:56.851Z,2.75
2023-07-25T09:12:25.826Z,3.60
2023-07-25T09:14:54.817Z,3.50
2023-07-25T09:17:23.656Z,2.72
2023-07-25T09:19:52.696Z,2.83
2023-07-25T09:22:29.677Z,2.60
2023-07-25T09:24:59.205Z,2.85
2023-07-25T09:27:28.139Z,2.88
2023-07-25T09:29:58.345Z,2.95
2023-07-25T09:32:28.947Z,3.90
2023-07-25T09:35:02.871Z,3.72
2023-07-25T09:37:32.101Z,3.95
2023-07-25T09:40:02.235Z,3.67
2023-07-25T09:42:30.866Z,3.47
2023-07-25T09:44:59.941Z,3.00
2023-07-25T09:47:29.522Z,3.13
2023-07-25T09:49:58.611Z,3.15
2023-07-25T09:52:28.014Z,3.25
2023-07-25T09:54:56.961Z,3.00
2023-07-25T09:57:25.478Z,3.00
2023-07-25T09:59:54.371Z,2.47
2023-07-25T10:02:23.048Z,2.78
2023-07-25T10:04:52.612Z,2.05
2023-07-25T10:07:21.267Z,2.90
2023-07-25T10:09:50.264Z,2.75
2023-07-25T10:12:18.764Z,1.63
2023-07-25T10:14:48.686Z,1.80
2023-07-25T10:17:17.374Z,1.67
2023-07-25T10:19:48.811Z,1.38
2023-07-25T10:22:17.842Z,2.38
2023-07-25T10:24:46.906Z,2.15
2023-07-25T10:27:15.776Z,1.83
2023-07-25T10:29:48.672Z,2.13
2023-07-25T10:32:23.991Z,1.65
2023-07-25T10:35:04.384Z,1.60
2023-07-25T10:37:37.888Z,1.30
2023-07-25T10:40:22.085Z,1.83
2023-07-25T10:43:05.865Z,2.50
2023-07-25T10:45:46.161Z,2.15
2023-07-25T10:48:31.053Z,2.53
2023-07-25T10:51:00.905Z,1.95
2023-07-25T10:53:29.563Z,2.15
2023-07-25T10:56:10.914Z,2.33
2023-07-25T10:58:41.204Z,1.77
2023-07-25T11:01:21.439Z,2.00
2023-07-25T11:03:50.176Z,1.70
2023-07-25T11:06:39.295Z,1.55
2023-07-25T11:09:12.389Z,1.70
2023-07-25T11:11:48.419Z,2.08
2023-07-25T11:14:19.017Z,1.50
2023-07-25T11:16:50.888Z,1.33
2023-07-25T11:19:21.908Z,1.20
2023-07-25T11:21:50.875Z,1.25
2023-07-25T11:24:21.253Z,1.05
2023-07-25T11:26:50.305Z,1.00
2023-07-25T11:29:19.718Z,1.42
2023-07-25T11:31:49.689Z,1.52
2023-07-25T11:34:20.440Z,1.45
2023-07-25T11:36:49.449Z,1.15
2023-07-25T11:39:19.153Z,1.20
2023-07-25T11:41:48.272Z,1.30
2023-07-25T11:44:18.722Z,1.33
2023-07-25T11:46:54.545Z,1.58
2023-07-25T11:49:40.498Z,1.30
2023-07-25T11:52:12.243Z,1.00
2023-07-25T11:54:40.886Z,1.20
2023-07-25T11:57:11.302Z,1.33
2023-07-25T11:59:43.002Z,1.42
2023-07-25T12:02:14.786Z,1.47
2023-07-25T12:04:45.123Z,1.25
2023-07-25T12:07:15.343Z,1.00
2023-07-25T12:09:54.306Z,1.30
2023-07-25T12:12:23.463Z,1.75
2023-07-25T12:14:56.836Z,1.35
2023-07-25T12:17:41.303Z,1.42
2023-07-25T12:20:16.945Z,1.50
2023-07-25T12:22:48.854Z,1.17
2023-07-25T12:25:19.097Z,1.30
2023-07-25T12:27:49.202Z,1.60
2023-07-25T12:30:18.099Z,1.88
2023-07-25T12:32:47.552Z,1.25
2023-07-25T12:35:16.257Z,1.60
2023-07-25T12:37:45.195Z,1.65
2023-07-25T12:40:13.818Z,1.10
2023-07-25T12:42:43.870Z,1.70
2023-07-25T12:45:12.522Z,1.80
2023-07-25T12:47:41.225Z,1.77
2023-07-25T12:50:11.288Z,1.77
2023-07-25T12:52:40.008Z,2.00
2023-07-25T12:55:09.609Z,2.35
2023-07-25T12:57:38.975Z,1.75
2023-07-25T13:00:11.004Z,2.80
2023-07-25T13:02:40.305Z,1.98
2023-07-25T13:05:09.526Z,2.15
2023-07-25T13:07:38.259Z,1.90
2023-07-25T13:10:08.180Z,2.40
2023-07-25T13:12:36.822Z,2.17
2023-07-25T13:15:07.475Z,2.38
2023-07-25T13:17:36.198Z,2.58
2023-07-25T13:20:09.738Z,2.60
2023-07-25T13:22:38.333Z,1.95
2023-07-25T13:25:07.556Z,2.10
2023-07-25T13:27:36.108Z,2.40
2023-07-25T13:30:05.476Z,2.22
2023-07-25T13:32:34.179Z,2.40
2023-07-25T13:35:03.178Z,3.10
2023-07-25T13:37:32.249Z,2.97
2023-07-25T13:40:01.285Z,2.67
2023-07-25T13:42:30.061Z,3.33
2023-07-25T13:44:59.074Z,3.22
2023-07-25T13:47:27.643Z,3.03
2023-07-25T13:49:59.750Z,2.90
2023-07-25T13:52:28.783Z,3.20
2023-07-25T13:54:58.008Z,3.30
2023-07-25T13:57:32.597Z,3.25
2023-07-25T14:00:04.840Z,3.75
2023-07-25T14:02:33.672Z,3.53
2023-07-25T14:05:03.047Z,4.30
2023-07-25T14:07:31.695Z,4.05
2023-07-25T14:10:01.680Z,3.83
2023-07-25T14:12:30.786Z,4.18
2023-07-25T14:15:02.528Z,5.50
2023-07-25T14:17:31.523Z,4.70
2023-07-25T14:20:00.522Z,4.15
2023-07-25T14:22:29.414Z,4.47
2023-07-25T14:24:59.388Z,4.07
2023-07-25T14:27:28.245Z,5.13
2023-07-25T14:29:57.218Z,4.75
2023-07-25T14:32:27.005Z,4.85
2023-07-25T14:34:57.070Z,4.45
2023-07-25T14:37:31.218Z,4.97
2023-07-25T14:40:08.210Z,4.95
2023-07-25T14:42:36.789Z,4.45
2023-07-25T14:45:06.295Z,4.60
2023-07-25T14:47:35.030Z,4.70
2023-07-25T14:50:04.153Z,4.45
2023-07-25T14:52:33.063Z,5.50
2023-07-25T14:55:02.132Z,4.75
2023-07-25T14:57:31.916Z,4.80
2023-07-25T15:00:00.996Z,5.00
2023-07-25T15:02:29.909Z,4.40
2023-07-25T15:04:59.509Z,5.40
2023-07-25T15:07:28.172Z,5.63
2023-07-25T15:09:57.297Z,5.60
2023-07-25T15:12:27.944Z,5.32
2023-07-25T15:14:56.884Z,5.30
2023-07-25T15:17:25.978Z,5.15
2023-07-25T15:20:02.382Z,5.38
2023-07-25T15:22:31.354Z,5.10
2023-07-25T15:25:01.018Z,5.93
2023-07-25T15:27:29.892Z,5.88
2023-07-25T15:29:58.885Z,5.72
2023-07-25T15:32:28.661Z,5.97
2023-07-25T15:34:57.744Z,5.65
2023-07-25T15:37:26.883Z,5.07
2023-07-25T15:39:55.941Z,5.68
2023-07-25T15:42:24.534Z,6.28
2023-07-25T15:44:54.498Z,5.82
2023-07-25T15:47:23.223Z,6.13
2023-07-25T15:49:53.949Z,5.55
2023-07-25T15:52:22.615Z,4.65
2023-07-25T15:54:51.596Z,5.25
2023-07-25T15:57:20.280Z,4.50
2023-07-25T15:59:49.255Z,5.32
2023-07-25T16:02:18.009Z,5.55
2023-07-25T16:04:47.597Z,6.55
2023-07-25T16:07:16.256Z,5.80
2023-07-25T16:09:45.258Z,5.35
2023-07-25T16:12:14.427Z,5.57
2023-07-25T16:14:43.725Z,6.82
2023-07-25T16:17:12.524Z,6.38
2023-07-25T16:19:42.318Z,5.68
2023-07-25T16:22:11.083Z,5.55
2023-07-25T16:24:40.090Z,5.40
2023-07-25T16:27:08.748Z,6.07
2023-07-25T16:29:38.488Z,6.25
2023-07-25T16:32:07.739Z,5.70
2023-07-25T16:34:36.812Z,5.60
2023-07-25T16:37:05.742Z,5.88
2023-07-25T16:39:34.777Z,5.72
2023-07-25T16:42:04.373Z,7.18
2023-07-25T16:44:33.387Z,5.60
2023-07-25T16:47:02.138Z,5.50
2023-07-25T16:49:31.094Z,6.18
2023-07-25T16:51:59.767Z,5.82
2023-07-25T16:54:28.797Z,6.05
2023-07-25T16:56:57.830Z,5.57
2023-07-25T16:59:26.875Z,5.60
2023-07-25T17:01:55.558Z,5.82
2023-07-25T17:04:24.614Z,5.13
2023-07-25T17:06:53.314Z,6.22
2023-07-25T17:09:22.394Z,6.07
2023-07-25T17:11:51.070Z,5.78
2023-07-25T17:14:21.125Z,5.78
2023-07-25T17:16:49.828Z,6.53
2023-07-25T17:19:19.582Z,6.03
2023-07-25T17:21:49.130Z,5.90
2023-07-25T17:24:19.448Z,5.63
2023-07-25T17:26:48.275Z,5.15
2023-07-25T17:29:17.647Z,5.75
2023-07-25T17:31:46.357Z,7.20
2023-07-25T17:34:15.780Z,5.97
2023-07-25T17:36:44.484Z,5.85
2023-07-25T17:39:13.606Z,6.05
2023-07-25T17:41:42.267Z,6.22
2023-07-25T17:44:11.272Z,6.07
2023-07-25T17:46:39.962Z,6.13
2023-07-25T17:49:09.087Z,5.65
2023-07-25T17:51:37.763Z,6.30
2023-07-25T17:54:07.920Z,6.05
2023-07-25T17:56:36.671Z,6.05
2023-07-25T17:59:06.455Z,5.70
2023-07-25T18:01:35.486Z,5.70
2023-07-25T18:04:04.904Z,5.15
2023-07-25T18:06:35.301Z,7.07
2023-07-25T18:09:05.422Z,7.60
2023-07-25T18:11:34.567Z,7.20
2023-07-25T18:14:04.128Z,5.97
2023-07-25T18:16:32.792Z,6.32
2023-07-25T18:19:01.885Z,5.88
2023-07-25T18:21:31.613Z,6.00
2023-07-25T18:24:00.745Z,5.63
2023-07-25T18:26:29.604Z,5.38
2023-07-25T18:28:58.626Z,5.53
2023-07-25T18:31:27.534Z,5.18
2023-07-25T18:33:56.604Z,5.90
2023-07-25T18:36:25.260Z,6.57
2023-07-25T18:38:54.334Z,6.22
2023-07-25T18:41:23.735Z,6.18
2023-07-25T18:43:52.793Z,5.40
2023-07-25T18:46:21.563Z,5.53
2023-07-25T18:48:50.616Z,7.65
2023-07-25T18:51:19.410Z,7.15
2023-07-25T18:53:48.476Z,6.72
2023-07-25T18:56:17.119Z,6.10
2023-07-25T18:58:46.076Z,6.55
2023-07-25T19:01:14.878Z,7.13
2023-07-25T19:03:43.896Z,7.28
2023-07-25T19:06:12.664Z,6.75
2023-07-25T19:08:41.620Z,6.05
2023-07-25T19:11:10.274Z,6.18
2023-07-25T19:13:40.466Z,6.95
2023-07-25T19:16:09.236Z,6.15
2023-07-25T19:18:38.254Z,7.35
2023-07-25T19:21:06.961Z,7.53
2023-07-25T19:23:36.654Z,7.43
2023-07-25T19:26:05.519Z,6.70
2023-07-25T19:28:34.523Z,6.82
2023-07-25T19:31:06.146Z,7.38
2023-07-25T19:33:35.274Z,6.45
2023-07-25T19:36:04.067Z,6.82
2023-07-25T19:38:33.338Z,6.95
2023-07-25T19:41:02.106Z,7.22
2023-07-25T19:43:31.256Z,6.47
2023-07-25T19:46:05.134Z,6.32
2023-07-25T19:48:34.447Z,6.60
2023-07-25T19:51:13.686Z,7.32
2023-07-25T19:53:42.896Z,6.82
2023-07-25T19:56:11.987Z,7.25
2023-07-25T19:58:41.246Z,7.05
2023-07-25T20:01:11.155Z,7.07
2023-07-25T20:03:41.788Z,7.18
2023-07-25T20:06:10.932Z,7.32
2023-07-25T20:08:41.181Z,6.68
2023-07-25T20:11:13.944Z,6.03
2023-07-25T20:13:43.726Z,6.50
2023-07-25T20:16:12.961Z,6.35
2023-07-25T20:18:42.231Z,6.68
2023-07-25T20:21:12.245Z,5.88
2023-07-25T20:23:41.682Z,5.95
2023-07-25T20:26:13.319Z,7.53
2023-07-25T20:28:42.561Z,6.45
2023-07-25T20:31:13.527Z,7.07
2023-07-25T20:33:43.390Z,5.77
2023-07-25T20:36:12.122Z,7.63
2023-07-25T20:38:43.546Z,6.90
2023-07-25T20:41:12.264Z,6.57
2023-07-25T20:43:42.307Z,7.03
2023-07-25T20:46:11.637Z,6.50
2023-07-25T20:48:41.948Z,6.15
2023-07-25T20:51:10.775Z,6.90
2023-07-25T20:53:39.943Z,6.55
2023-07-25T20:56:09.305Z,6.22
2023-07-25T20:58:39.386Z,6.28
2023-07-25T21:01:09.300Z,5.45
2023-07-25T21:03:38.664Z,4.50
2023-07-25T21:06:07.458Z,4.82
2023-07-25T21:08:36.728Z,3.95
2023-07-25T21:11:09.321Z,2.97
2023-07-25T21:16:07.379Z,2.22
2023-07-25T21:18:37.031Z,1.95
2023-07-25T21:21:05.882Z,1.48
2023-07-25T21:23:35.092Z,2.05
2023-07-25T21:26:05.238Z,1.60
2023-07-25T21:28:34.447Z,1.60
2023-07-25T21:31:07.427Z,1.55
2023-07-25T21:33:37.819Z,1.52
2023-07-25T21:36:14.853Z,1.80
2023-07-25T21:38:44.331Z,1.85
2023-07-25T21:41:13.711Z,2.22
2023-07-25T21:43:43.542Z,1.52
2023-07-25T21:46:12.556Z,1.35
2023-07-25T21:48:41.908Z,1.45
2023-07-25T21:51:11.874Z,1.40
2023-07-25T21:53:43.931Z,1.13
2023-07-25T21:56:12.841Z,0.98
2023-07-25T21:58:42.322Z,0.73
2023-07-25T22:01:11.261Z,1.10
2023-07-25T22:03:40.898Z,1.20
2023-07-25T22:06:09.756Z,1.35
2023-07-25T22:08:39.020Z,1.15
2023-07-25T22:11:07.902Z,1.00
2023-07-25T22:13:37.080Z,1.25
2023-07-25T22:16:06.570Z,0.88
2023-07-25T22:18:35.988Z,0.98
2023-07-25T22:21:04.866Z,1.25
2023-07-25T22:23:34.025Z,1.27
2023-07-25T22:26:03.535Z,1.10
2023-07-25T22:28:32.909Z,0.95
2023-07-25T22:31:02.298Z,0.90
2023-07-25T22:33:31.498Z,0.88
2023-07-25T22:36:00.511Z,1.00
2023-07-25T22:38:29.766Z,0.90
2023-07-25T22:40:58.666Z,0.68
2023-07-25T22:43:27.789Z,1.25
2023-07-25T22:45:56.734Z,0.60
2023-07-25T22:48:26.053Z,0.77
2023-07-25T22:50:54.903Z,0.80
2023-07-25T22:53:24.036Z,0.80
2023-07-25T22:55:52.845Z,0.88
2023-07-25T22:58:22.553Z,0.80
2023-07-25T23:00:51.369Z,0.93
2023-07-25T23:03:20.564Z,0.88
2023-07-25T23:05:49.527Z,0.80
2023-07-25T23:08:18.671Z,0.90
2023-07-25T23:10:53.478Z,0.55
2023-07-25T23:13:22.767Z,0.75
2023-07-25T23:15:51.645Z,0.90
2023-07-25T23:18:20.798Z,0.93
2023-07-25T23:20:49.653Z,1.23
2023-07-25T23:23:18.854Z,0.82
2023-07-25T23:25:48.269Z,1.02
2023-07-25T23:28:17.440Z,1.00
2023-07-25T23:30:46.430Z,0.70
2023-07-25T23:33:15.584Z,1.00
2023-07-25T23:35:44.489Z,0.85
2023-07-25T23:38:13.882Z,0.82
2023-07-25T23:40:42.781Z,0.82
2023-07-25T23:43:12.861Z,1.10
2023-07-25T23:45:41.680Z,0.88
2023-07-25T23:48:10.861Z,0.90
2023-07-25T23:50:39.697Z,1.30
2023-07-25T23:53:08.892Z,1.45
2023-07-25T23:55:37.768Z,1.30
2023-07-25T23:58:07.012Z,2.28
